Disclaimer

Please do not use the information listed here in-flight or in-navigation, as they are not provided to us by the airports but are provided by volunteers, so they might be outdated.

Search


Regions


Airport information page

Radio informations:
Tower (TWR) - 128.3 MHz
A/G VOICE RDO - 6559 MHz

Airport informations:
Latitude: 03° 45' 18.96" N
Longitude: 008° 42' 31.38" E
Elevation: 76 feet - 23 meters
Operating hours: Remarks
Operating agency: Military-civil joint use airport
Timezone: UTC+1
Fuel: Jet A1, without icing nhibitor.

Runway information:
05/23 - 9647 x 151 feet< - >2940 x 46 meters

Recent METARs:
FGSL 141600Z 25006KT 9999 FEW010 28/25 Q1008 NOSIG
FGSL 141600Z 25006KT 9999 FEW010 28/25 Q1008 NOSIG
FGSL 141700Z 24005KT 9999 FEW010 27/24 Q1008 NOSIG

Airport on the map: